Bridgeport, NE (69336)

6:00 PM MDT on March 28, 2015 (GMT -0600)
The Clinger Family | | Change Station
CLOSE
Current Station
Personal Weather Station
Location: Bridgeport, NE
Elevation: 3666 ft
Nearby Weather Stations
Active Advisory: Fire Weather Warning Active Notice: Record Report

Elev 3666 ft 41.66 °N, 103.10 °W | Updated 4 minutes ago

Clear
Clear
80.7 °F
Feels Like 79 °F
N
9.0
Wind Variable Wind from West

Today
High -- | Low -- °F
--% Chance of Precip.
Yesterday
High -- | Low -- °F
Precip. -- in
6:42 AM 7:13 PM
Waxing Gibbous, 66% visible
Pressure 29.68 in
Visibility 10.0 miles
Clouds Clear
Heat Index 79 °F
Dew Point 25 °F
Humidity 13%
Rainfall 0.00 in
Snow Depth Not available.
UV 0.5 out of 12
Pollen 9.10 out of 12
Air Quality Not available.
Flu Activity Not available.
METAR KAIA 282353Z AUTO 27016G21KT 10SM CLR 26/00 A2974 RMK AO2 PK WND 27027/2256 SLP048 T02610000 10272 20228 57021

More Conditions Fewer Conditions

Pressure 29.68 in
Visibility 10.0 miles
Clouds Clear
Heat Index 79 °F
Dew Point 25 °F
Humidity 13%
Rainfall 0.00 in
Snow Depth Not available.
UV 0.5 out of 12
Pollen 9.10 out of 12
Air Quality Not available.
Flu Activity Not available.
METAR KAIA 282353Z AUTO 27016G21KT 10SM CLR 26/00 A2974 RMK AO2 PK WND 27027/2256 SLP048 T02610000 10272 20228 57021

More Conditions Fewer Conditions

10-Day Weather Forecast

Almanac

Astronomy

Mar. 28, 2015 Rise Set
Actual Time
Civil Twilight
Nautical Twilight
Astronomical Twilight
Moon
Length of Visible Light
Length of Day
Tomorrow will be .
, % of the Moon is Illuminated

Today's Extremes

State Highs State Lows

Community

WunderPhotos

Upload Photos

1,809,130 photos uploaded!

WunderBlogs® & News

Nearby

Air Quality

  Air Quality AQ Index Pollutant
Not available.

Snow Depth

Station Depth Elevation

Earthquake Activity

City Distance Mag. Time & Date
Minimum magnitude displayed is 2.5.

Coastal Water Temperatures

Place Temperature

Stations

Nearby Weather Stations

Station Location Temp. Windchill Dew Point Humidity Wind Precip. Elev Updated Type
                   
Fire Weather Warning
Statement as of 3:12 PM MDT on March 28, 2015

... Red flag warning remains in effect until 8 PM MDT this evening
for strong winds and low relative humidity for fire weather zones
301... 310... 311... 312 and 313...

* affected area... fire weather zones 311... 312 and 313. Fire
weather zones 301 and 310.

* Wind... west 25 to 35 mph with gusts between 40 and 50 mph. The
strongest winds will be in southeast Wyoming.

* Humidity... 10 to 15 percent.

* Impacts... any fires that starts will likely spread rapidly.
Outdoor burning is not recommended today.

Precautionary/preparedness actions...

A red flag warning means that critical fire weather conditions
are either occurring now... or will shortly. A combination of
strong winds... low relative humidity... and warm temperatures will
create explosive fire growth potential.



Hammer